Time;durP1;ratioP1;P1;durP2;ratioP2;P2;SDS_P1;SDS_P2;PMS_P1;PMS_P2;Temp;Humidity;BMP_temperature;BMP_pressure;BME280_temperature;BME280_humidity;BME280_pressure;Samples;Min_cycle;Max_cycle;Signal;HPM_P1;HPM_P2
2021/06/03 00:00:05;;;;;;;5.73;5.23;;;18.70;86.80;;;;;;4958148;29;20492;-56
2021/06/03 00:02:31;;;;;;;7.23;5.80;;;18.60;86.00;;;;;;4956061;29;20452;-49
2021/06/03 00:04:57;;;;;;;8.97;5.47;;;18.60;86.30;;;;;;4956993;29;20452;-49
2021/06/03 00:07:24;;;;;;;7.50;5.10;;;18.50;86.20;;;;;;4956570;29;20451;-48
2021/06/03 00:09:51;;;;;;;5.77;4.90;;;18.50;86.40;;;;;;4957054;29;20915;-48
2021/06/03 00:12:17;;;;;;;6.60;5.30;;;18.50;87.00;;;;;;4955025;29;20447;-51
2021/06/03 00:14:43;;;;;;;6.57;5.87;;;18.50;87.50;;;;;;4956523;29;20573;-51
2021/06/03 00:17:10;;;;;;;7.03;6.40;;;18.50;87.80;;;;;;4956469;29;21001;-49
2021/06/03 00:19:36;;;;;;;10.67;5.83;;;18.50;88.30;;;;;;4956483;29;20996;-50
2021/06/03 00:22:02;;;;;;;11.13;5.97;;;18.40;88.60;;;;;;4954514;29;20919;-52
2021/06/03 00:24:28;;;;;;;7.20;5.67;;;18.40;90.20;;;;;;4952379;29;20463;-51
2021/06/03 00:26:56;;;;;;;6.17;5.57;;;18.30;90.60;;;;;;4956475;29;20451;-50
2021/06/03 00:29:22;;;;;;;5.43;4.90;;;18.20;90.90;;;;;;4956255;29;20452;-50
2021/06/03 00:31:48;;;;;;;6.80;6.10;;;18.10;91.70;;;;;;4950482;29;20478;-54
2021/06/03 00:34:14;;;;;;;7.47;5.50;;;18.10;92.20;;;;;;4955965;29;20495;-49
2021/06/03 00:36:40;;;;;;;8.30;4.90;;;18.10;92.50;;;;;;4956183;29;20448;-49
2021/06/03 00:39:07;;;;;;;6.33;5.73;;;18.00;93.10;;;;;;4955736;29;21164;-49
2021/06/03 00:41:33;;;;;;;6.30;5.70;;;18.00;93.80;;;;;;4954760;29;20456;-56
2021/06/03 00:44:02;;;;;;;7.30;5.47;;;17.90;94.40;;;;;;4955863;29;20452;-55
2021/06/03 00:46:28;;;;;;;10.00;5.23;;;17.90;94.40;;;;;;4956339;29;20487;-53
2021/06/03 00:48:54;;;;;;;9.23;6.13;;;17.90;94.70;;;;;;4956013;29;20432;-51
2021/06/03 00:51:21;;;;;;;5.90;5.07;;;17.80;94.90;;;;;;4954230;29;21072;-53
2021/06/03 00:53:47;;;;;;;6.40;5.80;;;17.70;95.40;;;;;;4955801;29;20542;-52
2021/06/03 00:56:14;;;;;;;6.60;6.00;;;17.60;95.90;;;;;;4951511;29;20470;-53
2021/06/03 00:58:40;;;;;;;6.87;5.53;;;17.60;96.50;;;;;;4955401;29;20464;-51
2021/06/03 01:01:08;;;;;;;6.83;5.60;;;17.60;96.70;;;;;;4954044;29;20452;-52
2021/06/03 01:03:34;;;;;;;6.77;5.40;;;17.50;97.00;;;;;;4955869;29;20447;-54
2021/06/03 01:06:03;;;;;;;6.67;5.97;;;17.50;97.20;;;;;;4955123;28;21018;-52
2021/06/03 01:08:33;;;;;;;9.37;6.03;;;17.40;97.50;;;;;;4955828;29;20463;-51
2021/06/03 01:11:06;;;;;;;7.20;5.50;;;17.40;97.70;;;;;;4954385;29;20455;-54
2021/06/03 01:13:40;;;;;;;6.03;5.43;;;17.40;98.10;;;;;;4955017;29;20986;-54
2021/06/03 01:16:09;;;;;;;9.23;6.03;;;17.30;98.30;;;;;;4955660;29;20978;-52
2021/06/03 01:18:38;;;;;;;7.10;4.83;;;17.20;98.50;;;;;;4955306;29;20455;-53
2021/06/03 01:21:07;;;;;;;5.90;5.40;;;17.20;98.80;;;;;;4954081;29;20522;-54
2021/06/03 01:23:38;;;;;;;6.07;5.47;;;17.10;99.10;;;;;;4955250;29;20530;-53
2021/06/03 01:26:06;;;;;;;7.80;5.10;;;17.20;99.10;;;;;;4955412;29;20459;-49
2021/06/03 01:28:34;;;;;;;10.17;6.20;;;17.10;99.20;;;;;;4955113;29;20447;-51
2021/06/03 01:31:01;;;;;;;6.83;5.63;;;17.10;99.20;;;;;;4951986;29;20460;-50
2021/06/03 01:33:30;;;;;;;7.53;6.80;;;17.10;99.70;;;;;;4955170;29;20500;-48
2021/06/03 01:35:59;;;;;;;8.70;6.20;;;17.10;99.70;;;;;;4956177;29;20809;-48
2021/06/03 01:38:27;;;;;;;6.67;5.93;;;17.00;99.90;;;;;;4955963;29;20479;-53
2021/06/03 01:40:55;;;;;;;6.40;5.67;;;17.00;99.90;;;;;;4953325;29;20935;-54
2021/06/03 01:43:25;;;;;;;6.40;5.67;;;16.90;99.90;;;;;;4954781;29;20444;-54
2021/06/03 01:45:51;;;;;;;6.83;5.80;;;16.90;99.90;;;;;;4955044;29;20447;-55
2021/06/03 01:48:22;;;;;;;6.50;5.90;;;16.90;99.90;;;;;;4954900;29;20954;-58
2021/06/03 01:50:52;;;;;;;6.73;5.97;;;16.80;99.90;;;;;;4953289;29;20460;-53
2021/06/03 01:53:20;;;;;;;10.40;7.40;;;16.80;99.90;;;;;;4951306;29;20978;-52
2021/06/03 01:55:50;;;;;;;6.20;5.70;;;16.80;99.90;;;;;;4954792;29;21001;-54
2021/06/03 01:58:16;;;;;;;8.70;6.93;;;16.70;99.90;;;;;;4954547;29;20468;-52
2021/06/03 02:00:45;;;;;;;7.30;6.30;;;16.70;99.90;;;;;;4952569;29;20487;-52
2021/06/03 02:03:11;;;;;;;11.80;5.73;;;16.60;99.90;;;;;;4954618;29;20451;-48
2021/06/03 02:05:37;;;;;;;7.77;5.47;;;16.60;99.90;;;;;;4952448;29;20463;-52
2021/06/03 02:08:04;;;;;;;6.73;6.07;;;16.60;99.90;;;;;;4954658;29;20526;-52
2021/06/03 02:10:31;;;;;;;6.80;6.10;;;16.60;99.90;;;;;;4953004;29;20479;-55
2021/06/03 02:13:06;;;;;;;7.27;6.33;;;16.50;99.90;;;;;;4954156;29;20953;-51
2021/06/03 02:15:36;;;;;;;7.63;6.83;;;16.50;99.90;;;;;;4954482;29;20458;-51
2021/06/03 02:18:07;;;;;;;8.13;6.07;;;16.50;99.90;;;;;;4950022;29;20822;-54
2021/06/03 02:20:36;;;;;;;7.40;6.50;;;16.50;99.90;;;;;;4952876;29;20954;-53
2021/06/03 02:23:03;;;;;;;6.30;5.70;;;16.40;99.90;;;;;;4954355;29;20458;-52
2021/06/03 02:25:30;;;;;;;8.30;6.00;;;16.40;99.90;;;;;;4950326;29;20807;-54
2021/06/03 02:27:56;;;;;;;7.17;5.70;;;16.30;99.90;;;;;;4954387;29;20938;-52
2021/06/03 02:30:24;;;;;;;7.47;6.23;;;16.30;99.90;;;;;;4953497;29;20750;-53
2021/06/03 02:32:52;;;;;;;6.10;5.50;;;16.30;99.90;;;;;;4953793;29;20451;-54
2021/06/03 02:35:20;;;;;;;7.67;6.90;;;16.30;99.90;;;;;;4954144;29;20471;-55
2021/06/03 02:37:48;;;;;;;7.43;5.97;;;16.30;99.90;;;;;;4955003;28;20447;-55
2021/06/03 02:40:16;;;;;;;11.13;6.03;;;16.20;99.90;;;;;;4952131;29;20536;-51
2021/06/03 02:42:44;;;;;;;5.97;5.37;;;16.20;99.90;;;;;;4941690;29;20448;-53
2021/06/03 02:45:13;;;;;;;9.53;6.50;;;16.20;99.90;;;;;;4954946;29;20452;-54
2021/06/03 02:47:39;;;;;;;7.93;6.97;;;16.10;99.90;;;;;;4955223;29;20873;-51
2021/06/03 02:50:08;;;;;;;7.33;6.40;;;16.10;99.90;;;;;;4954954;29;20779;-52
2021/06/03 02:52:36;;;;;;;6.67;5.90;;;16.10;99.90;;;;;;4955364;29;20467;-52
2021/06/03 02:55:03;;;;;;;7.30;6.60;;;16.00;99.90;;;;;;4955252;29;20519;-50
2021/06/03 02:57:29;;;;;;;8.20;6.00;;;16.10;99.90;;;;;;4957016;29;20448;-52
2021/06/03 02:59:56;;;;;;;7.97;6.23;;;16.10;99.90;;;;;;4956779;29;20507;-52
2021/06/03 03:02:22;;;;;;;7.83;5.87;;;16.10;99.90;;;;;;4956898;29;20447;-49
2021/06/03 03:04:48;;;;;;;9.30;6.30;;;16.10;99.90;;;;;;4957351;29;20447;-49
2021/06/03 03:07:15;;;;;;;7.20;6.60;;;16.10;99.90;;;;;;4957044;29;20451;-50
2021/06/03 03:09:42;;;;;;;9.50;6.80;;;16.10;99.90;;;;;;4956508;29;20468;-51
2021/06/03 03:12:10;;;;;;;8.30;5.80;;;16.10;99.90;;;;;;4957100;29;20522;-53
2021/06/03 03:14:37;;;;;;;7.03;5.97;;;16.10;99.90;;;;;;4956508;29;20475;-52
2021/06/03 03:17:04;;;;;;;9.23;6.63;;;16.10;99.90;;;;;;4957320;29;20506;-51
2021/06/03 03:19:31;;;;;;;7.20;6.50;;;16.10;99.90;;;;;;4956512;29;20518;-53
2021/06/03 03:21:57;;;;;;;7.77;6.10;;;16.00;99.90;;;;;;4943159;29;20475;-51
2021/06/03 03:24:23;;;;;;;10.17;6.63;;;16.10;99.90;;;;;;4937977;29;20452;-48
2021/06/03 03:26:51;;;;;;;11.37;7.07;;;16.00;99.90;;;;;;4937864;29;20452;-53
2021/06/03 03:29:17;;;;;;;9.87;6.40;;;16.00;99.90;;;;;;4942561;29;20476;-48
2021/06/03 03:31:43;;;;;;;7.37;5.90;;;16.10;99.90;;;;;;4943832;29;20514;-53
2021/06/03 03:34:09;;;;;;;6.27;5.67;;;16.00;99.90;;;;;;4942746;29;20488;-54
2021/06/03 03:36:37;;;;;;;6.40;5.80;;;16.00;99.90;;;;;;4942973;29;20452;-51
2021/06/03 03:39:04;;;;;;;7.57;5.57;;;16.00;99.90;;;;;;4942351;29;20448;-53
2021/06/03 03:41:31;;;;;;;9.33;6.90;;;16.00;99.90;;;;;;4940811;29;20456;-51
2021/06/03 03:43:58;;;;;;;10.43;6.57;;;16.00;99.90;;;;;;4941306;29;20839;-51
2021/06/03 03:46:25;;;;;;;7.10;5.40;;;16.00;99.90;;;;;;4941733;29;20457;-55
2021/06/03 03:48:51;;;;;;;6.67;6.00;;;16.00;99.90;;;;;;4940775;29;20780;-53
2021/06/03 03:51:18;;;;;;;8.10;6.90;;;16.00;99.90;;;;;;4940486;29;20460;-54
2021/06/03 03:53:44;;;;;;;6.50;5.87;;;16.00;99.90;;;;;;4940767;29;20949;-50
2021/06/03 03:56:12;;;;;;;8.67;6.17;;;15.90;99.90;;;;;;4943438;29;20475;-53
2021/06/03 03:58:39;;;;;;;11.20;6.30;;;15.90;99.90;;;;;;4940472;29;20459;-48
2021/06/03 04:01:07;;;;;;;9.37;6.60;;;15.90;99.90;;;;;;4942089;29;20453;-54
2021/06/03 04:03:34;;;;;;;9.17;6.53;;;15.90;99.90;;;;;;4941258;29;20783;-51
2021/06/03 04:06:00;;;;;;;6.70;5.93;;;15.90;99.90;;;;;;4942004;29;20449;-50
2021/06/03 04:08:27;;;;;;;8.47;6.83;;;15.90;99.90;;;;;;4940418;29;20488;-53
2021/06/03 04:10:53;;;;;;;8.93;6.60;;;15.90;99.90;;;;;;4940344;29;20488;-51
2021/06/03 04:13:20;;;;;;;6.93;5.83;;;15.90;99.90;;;;;;4938475;29;20571;-52
2021/06/03 04:15:47;;;;;;;7.53;6.37;;;15.90;99.90;;;;;;4942612;29;20644;-54
2021/06/03 04:18:15;;;;;;;8.70;6.20;;;16.00;99.90;;;;;;4961656;29;20429;-52
2021/06/03 04:20:41;;;;;;;13.37;7.07;;;15.90;99.90;;;;;;4947046;29;21073;-51
2021/06/03 04:23:08;;;;;;;11.17;6.20;;;16.00;99.90;;;;;;4957838;29;20472;-53
2021/06/03 04:25:34;;;;;;;6.90;6.20;;;16.00;99.90;;;;;;4958413;29;20451;-54
2021/06/03 04:28:00;;;;;;;8.00;6.63;;;16.00;99.90;;;;;;4958270;29;20514;-51
2021/06/03 04:30:28;;;;;;;7.60;6.30;;;16.00;99.90;;;;;;4955666;29;20494;-48
2021/06/03 04:32:54;;;;;;;7.23;5.63;;;16.00;99.90;;;;;;4957571;29;20436;-51
2021/06/03 04:35:23;;;;;;;8.07;6.87;;;16.00;99.90;;;;;;4960869;29;20491;-54
2021/06/03 04:37:51;;;;;;;9.17;6.73;;;16.10;99.90;;;;;;4958513;29;20957;-53
2021/06/03 04:40:21;;;;;;;10.53;6.67;;;16.10;99.90;;;;;;4958590;28;20506;-49
2021/06/03 04:42:48;;;;;;;8.73;6.60;;;16.10;99.90;;;;;;4958396;29;20830;-53
2021/06/03 04:45:15;;;;;;;8.57;5.87;;;16.10;99.90;;;;;;4958951;29;20444;-54
2021/06/03 04:47:42;;;;;;;8.30;5.80;;;16.20;99.90;;;;;;4959093;29;20451;-52
2021/06/03 04:50:09;;;;;;;8.10;5.97;;;16.30;99.90;;;;;;4958757;29;20753;-54
2021/06/03 04:52:37;;;;;;;12.50;6.43;;;16.30;99.90;;;;;;4958925;29;20818;-53
2021/06/03 04:55:09;;;;;;;6.77;6.03;;;16.30;99.90;;;;;;4958408;29;20479;-52
2021/06/03 04:57:36;;;;;;;8.20;5.93;;;16.40;99.90;;;;;;4958738;29;20495;-53
2021/06/03 05:00:06;;;;;;;11.00;6.43;;;16.40;99.90;;;;;;4958129;29;20487;-49
2021/06/03 05:02:33;;;;;;;8.73;7.10;;;16.50;99.90;;;;;;4952812;29;20469;-50
2021/06/03 05:04:59;;;;;;;11.33;5.80;;;16.50;99.90;;;;;;4939781;29;20456;-50
2021/06/03 05:07:25;;;;;;;8.43;6.07;;;16.60;99.90;;;;;;4938973;29;20460;-50
2021/06/03 05:09:53;;;;;;;9.90;6.80;;;16.60;99.90;;;;;;4939218;29;20839;-53
2021/06/03 05:12:19;;;;;;;9.40;6.80;;;16.70;99.90;;;;;;4939061;29;20456;-51
2021/06/03 05:14:45;;;;;;;6.50;5.73;;;16.80;99.90;;;;;;4939325;29;20488;-50
2021/06/03 05:17:11;;;;;;;10.70;6.80;;;16.80;99.90;;;;;;4939504;29;20508;-53
2021/06/03 05:19:38;;;;;;;13.13;7.27;;;16.90;99.90;;;;;;4938889;29;20485;-51
2021/06/03 05:22:05;;;;;;;8.10;6.43;;;17.00;99.90;;;;;;4938902;29;20449;-51
2021/06/03 05:24:31;;;;;;;6.80;6.10;;;17.10;99.90;;;;;;4939120;29;20448;-54
2021/06/03 05:26:59;;;;;;;12.00;6.80;;;17.20;99.90;;;;;;4938782;29;20453;-49
2021/06/03 05:29:25;;;;;;;9.60;5.77;;;17.30;99.90;;;;;;4938570;29;20460;-47
2021/06/03 05:31:52;;;;;;;7.53;6.17;;;17.30;99.90;;;;;;4939023;29;20456;-48
2021/06/03 05:34:19;;;;;;;8.13;6.43;;;17.40;99.90;;;;;;4938963;29;20520;-51
2021/06/03 05:36:46;;;;;;;8.40;6.53;;;17.50;99.90;;;;;;4938757;29;20855;-48
2021/06/03 05:39:12;;;;;;;15.43;6.10;;;17.60;99.90;;;;;;4939905;29;20468;-52
2021/06/03 05:41:39;;;;;;;7.57;5.70;;;17.60;99.90;;;;;;4951707;29;20440;-48
2021/06/03 05:44:09;;;;;;;7.30;6.43;;;17.70;99.90;;;;;;4952798;29;20453;-49
2021/06/03 05:46:35;;;;;;;12.43;7.90;;;17.80;99.90;;;;;;4939027;29;20475;-52
2021/06/03 05:49:01;;;;;;;8.80;6.97;;;17.90;99.90;;;;;;4936892;29;20983;-55
2021/06/03 05:51:28;;;;;;;10.80;7.83;;;18.00;99.90;;;;;;4947429;28;20941;-54
2021/06/03 05:53:54;;;;;;;7.20;6.20;;;18.10;99.90;;;;;;4956118;29;20488;-53
2021/06/03 05:56:22;;;;;;;6.83;6.07;;;18.20;99.90;;;;;;4956110;29;20479;-55
2021/06/03 05:58:48;;;;;;;10.03;6.07;;;18.20;99.90;;;;;;4955638;29;21021;-51
2021/06/03 06:01:15;;;;;;;8.83;5.90;;;18.30;99.90;;;;;;4955557;29;20943;-53
2021/06/03 06:03:45;;;;;;;8.07;6.67;;;18.40;99.90;;;;;;4955936;29;20510;-55
2021/06/03 06:06:23;;;;;;;9.53;6.40;;;18.50;99.90;;;;;;4955926;29;20499;-51
2021/06/03 06:08:50;;;;;;;8.73;5.70;;;18.60;99.90;;;;;;4953389;28;20491;-52
2021/06/03 06:11:17;;;;;;;11.17;6.00;;;18.70;99.90;;;;;;4954054;29;20923;-53
2021/06/03 06:13:44;;;;;;;11.67;6.63;;;18.80;99.50;;;;;;4956756;29;20479;-54
2021/06/03 06:16:10;;;;;;;8.90;4.93;;;18.90;99.30;;;;;;4956452;29;20455;-51
2021/06/03 06:18:38;;;;;;;13.50;5.93;;;19.00;99.10;;;;;;4956576;29;20511;-53
2021/06/03 06:21:05;;;;;;;9.63;7.07;;;19.00;99.30;;;;;;4956546;29;20472;-54
2021/06/03 06:23:35;;;;;;;6.53;5.30;;;19.10;99.20;;;;;;4956960;29;20475;-54
2021/06/03 06:26:01;;;;;;;7.63;6.07;;;19.20;98.90;;;;;;4956776;29;20448;-51
2021/06/03 06:28:28;;;;;;;6.07;5.20;;;19.20;98.20;;;;;;4956527;29;20515;-52
2021/06/03 06:30:54;;;;;;;9.70;6.50;;;19.30;98.80;;;;;;4956513;29;20451;-54
2021/06/03 06:33:20;;;;;;;9.80;6.17;;;19.40;98.00;;;;;;4953432;29;20480;-51
2021/06/03 06:35:49;;;;;;;9.40;7.00;;;19.50;97.70;;;;;;4938472;29;20468;-52
2021/06/03 06:38:16;;;;;;;8.57;6.27;;;19.50;97.40;;;;;;4937035;29;20459;-51
2021/06/03 06:40:42;;;;;;;9.13;6.73;;;19.60;97.50;;;;;;4942256;29;21062;-49
2021/06/03 06:43:08;;;;;;;6.97;6.03;;;19.70;96.30;;;;;;4956415;29;20926;-54
2021/06/03 06:45:37;;;;;;;9.13;6.80;;;19.80;96.10;;;;;;4956458;29;20807;-52
2021/06/03 06:48:04;;;;;;;9.73;5.90;;;19.90;96.40;;;;;;4956291;29;20462;-53
2021/06/03 06:50:30;;;;;;;10.57;5.87;;;20.00;96.30;;;;;;4956153;29;20787;-52
2021/06/03 06:52:57;;;;;;;9.20;5.90;;;20.10;95.50;;;;;;4956563;29;20447;-52
2021/06/03 06:55:24;;;;;;;18.97;6.63;;;20.30;95.50;;;;;;4955808;29;20483;-53
2021/06/03 06:57:53;;;;;;;10.43;6.60;;;20.40;94.40;;;;;;4953701;28;20463;-53
2021/06/03 07:00:21;;;;;;;14.63;8.23;;;20.60;94.50;;;;;;4941310;29;20828;-50
2021/06/03 07:02:47;;;;;;;13.10;6.47;;;20.80;93.10;;;;;;4955777;28;20585;-56
2021/06/03 07:05:14;;;;;;;10.17;6.00;;;21.00;92.70;;;;;;4959682;29;20530;-54
2021/06/03 07:07:41;;;;;;;12.37;6.93;;;21.20;92.50;;;;;;4960241;29;20456;-52
2021/06/03 07:10:11;;;;;;;7.47;5.87;;;21.50;92.80;;;;;;4958241;29;20479;-52
2021/06/03 07:12:38;;;;;;;13.83;5.30;;;21.80;91.90;;;;;;4959406;29;20487;-51
2021/06/03 07:15:07;;;;;;;7.90;5.27;;;22.20;88.30;;;;;;4959175;29;20487;-51
2021/06/03 07:17:33;;;;;;;9.13;5.20;;;22.80;87.20;;;;;;4953192;29;20475;-52
2021/06/03 07:19:59;;;;;;;6.93;6.20;;;24.10;82.20;;;;;;4958276;29;20458;-49
2021/06/03 07:22:25;;;;;;;6.47;5.87;;;25.90;76.30;;;;;;4954043;29;20479;-50
2021/06/03 07:24:52;;;;;;;15.23;6.27;;;27.80;64.70;;;;;;4955122;29;20790;-54
2021/06/03 07:27:19;;;;;;;6.30;5.70;;;29.50;57.60;;;;;;4942486;29;20448;-50
2021/06/03 07:29:46;;;;;;;10.80;6.73;;;31.20;53.30;;;;;;4958574;29;20785;-48
2021/06/03 07:32:12;;;;;;;10.80;7.47;;;33.00;48.40;;;;;;4958484;29;20460;-50
2021/06/03 07:34:39;;;;;;;12.97;8.30;;;34.40;44.80;;;;;;4957290;29;20483;-54
2021/06/03 07:37:05;;;;;;;8.03;6.60;;;35.30;41.60;;;;;;4957788;29;20452;-55
2021/06/03 07:39:31;;;;;;;9.90;8.83;;;35.20;39.10;;;;;;4956111;28;20542;-57
2021/06/03 07:41:57;;;;;;;9.40;6.97;;;35.70;38.50;;;;;;4956929;29;20439;-55
2021/06/03 07:44:24;;;;;;;7.57;6.70;;;36.50;37.40;;;;;;4959593;28;20456;-53
2021/06/03 07:46:51;;;;;;;8.03;7.00;;;37.20;36.20;;;;;;4957180;29;20467;-57
2021/06/03 07:49:17;;;;;;;10.20;5.93;;;37.60;34.20;;;;;;4956762;29;20475;-57
2021/06/03 07:51:44;;;;;;;5.47;5.07;;;38.10;34.70;;;;;;4956304;29;20455;-56
2021/06/03 07:54:11;;;;;;;6.33;5.30;;;38.40;33.40;;;;;;4954122;29;21021;-58
2021/06/03 07:56:38;;;;;;;9.47;8.67;;;38.80;32.90;;;;;;4956228;29;20786;-56
2021/06/03 07:59:04;;;;;;;9.33;8.10;;;38.70;32.30;;;;;;4956664;29;20479;-59
2021/06/03 08:01:32;;;;;;;9.87;6.53;;;39.00;31.10;;;;;;4956232;29;20456;-52
2021/06/03 08:03:58;;;;;;;10.67;6.97;;;39.10;31.30;;;;;;4955601;29;20467;-55
2021/06/03 08:06:24;;;;;;;9.47;5.57;;;39.20;30.60;;;;;;4954173;29;20483;-55
2021/06/03 08:08:51;;;;;;;6.27;5.67;;;39.00;30.30;;;;;;4958531;28;20916;-58
2021/06/03 08:11:17;;;;;;;6.53;5.83;;;38.90;30.70;;;;;;4956556;28;20526;-57
2021/06/03 08:13:43;;;;;;;17.20;5.67;;;39.10;30.60;;;;;;4957153;28;20618;-57
2021/06/03 08:16:10;;;;;;;6.83;6.07;;;39.20;30.50;;;;;;4956472;29;20456;-58
2021/06/03 08:18:37;;;;;;;7.60;5.20;;;39.50;29.90;;;;;;4956536;29;20468;-57
2021/06/03 08:21:05;;;;;;;6.33;5.53;;;39.60;29.50;;;;;;4959764;28;20479;-56
2021/06/03 08:23:32;;;;;;;5.77;4.90;;;39.80;29.50;;;;;;4960742;28;20525;-55
2021/06/03 08:25:59;;;;;;;6.70;6.00;;;39.50;29.60;;;;;;4967630;28;20434;-56
2021/06/03 08:28:27;;;;;;;7.57;5.00;;;39.20;29.90;;;;;;4961704;28;20448;-56
2021/06/03 08:30:56;;;;;;;6.97;6.30;;;39.10;29.50;;;;;;4961928;28;20572;-55
2021/06/03 08:33:22;;;;;;;8.40;5.93;;;39.10;29.80;;;;;;4960972;29;20448;-56
2021/06/03 08:35:50;;;;;;;5.57;5.07;;;39.10;29.80;;;;;;4963237;29;20492;-57
2021/06/03 08:38:17;;;;;;;8.80;4.83;;;39.10;29.50;;;;;;4955776;29;20467;-55
2021/06/03 08:40:46;;;;;;;9.10;5.50;;;39.10;29.20;;;;;;4955808;29;20444;-56
2021/06/03 08:43:14;;;;;;;6.97;5.87;;;39.10;29.50;;;;;;4955880;29;20949;-56
2021/06/03 08:45:43;;;;;;;7.90;5.33;;;39.30;29.20;;;;;;4952037;29;20444;-57
2021/06/03 08:48:10;;;;;;;5.63;5.10;;;39.50;29.00;;;;;;4956626;29;20530;-56
2021/06/03 08:50:38;;;;;;;6.13;5.53;;;39.70;28.80;;;;;;4956424;29;20547;-53
2021/06/03 08:53:07;;;;;;;6.07;4.43;;;40.20;28.30;;;;;;4955784;29;20522;-57
2021/06/03 08:58:23;;;;;;;7.23;5.57;;;40.50;27.80;;;;;;4956108;29;20479;-54
2021/06/03 09:00:49;;;;;;;5.60;5.10;;;40.40;27.90;;;;;;4955164;29;21185;-57
2021/06/03 09:03:16;;;;;;;5.10;4.60;;;40.10;28.00;;;;;;4956026;29;20443;-59
2021/06/03 09:05:44;;;;;;;5.43;4.97;;;39.90;27.80;;;;;;4956249;28;20475;-56
2021/06/03 09:08:20;;;;;;;11.97;5.30;;;40.30;27.30;;;;;;4953071;29;20543;-56
2021/06/03 09:10:49;;;;;;;6.00;4.83;;;40.40;28.10;;;;;;4954706;29;20502;-53
2021/06/03 09:13:17;;;;;;;4.93;4.53;;;40.20;27.20;;;;;;4954302;29;20447;-57
2021/06/03 09:15:45;;;;;;;5.93;4.87;;;40.20;27.30;;;;;;4954593;29;20523;-55
2021/06/03 09:18:14;;;;;;;8.43;5.60;;;40.00;26.90;;;;;;4955424;29;20835;-56
2021/06/03 09:20:43;;;;;;;4.70;4.27;;;40.00;27.50;;;;;;4954599;29;20451;-55
2021/06/03 09:23:30;;;;;;;6.30;5.00;;;39.80;27.20;;;;;;4954957;29;20451;-54
2021/06/03 09:25:57;;;;;;;5.00;4.50;;;39.90;26.60;;;;;;4954517;28;20463;-53
2021/06/03 09:28:29;;;;;;;11.17;5.20;;;39.60;26.80;;;;;;4955453;29;20784;-55
2021/06/03 09:31:07;;;;;;;5.90;4.67;;;39.60;27.60;;;;;;4957198;28;20818;-55
2021/06/03 09:33:55;;;;;;;7.13;5.13;;;39.40;27.20;;;;;;4951283;29;20495;-53
2021/06/03 09:36:28;;;;;;;9.47;5.57;;;39.10;27.90;;;;;;4954660;29;20478;-54
2021/06/03 09:39:04;;;;;;;5.23;4.60;;;39.00;27.80;;;;;;4955722;29;20451;-57
2021/06/03 09:41:31;;;;;;;4.53;4.20;;;39.00;27.80;;;;;;4954092;29;21001;-55
2021/06/03 09:44:05;;;;;;;4.87;4.37;;;39.20;27.10;;;;;;4954691;29;21006;-55
2021/06/03 09:46:38;;;;;;;7.03;5.30;;;39.40;27.20;;;;;;4954898;29;20448;-55
2021/06/03 09:49:09;;;;;;;6.30;5.40;;;39.40;28.30;;;;;;4955060;29;20597;-57
2021/06/03 09:51:38;;;;;;;5.20;4.63;;;39.40;28.00;;;;;;4953717;29;21011;-58
2021/06/03 09:54:07;;;;;;;6.37;4.10;;;39.40;27.10;;;;;;4954575;29;20483;-52
2021/06/03 09:56:35;;;;;;;5.47;4.30;;;39.30;26.90;;;;;;4954833;28;20452;-56
2021/06/03 09:59:04;;;;;;;5.43;4.90;;;39.10;26.90;;;;;;4953655;29;20498;-55
2021/06/03 10:01:42;;;;;;;5.07;4.53;;;38.80;28.20;;;;;;4951302;29;20565;-56
2021/06/03 10:04:10;;;;;;;4.20;3.90;;;38.80;27.60;;;;;;4952229;29;20498;-57
2021/06/03 10:06:51;;;;;;;5.20;4.80;;;38.70;27.30;;;;;;4954567;29;20957;-56
2021/06/03 10:09:19;;;;;;;5.37;4.03;;;38.50;27.80;;;;;;4946278;29;20440;-56
2021/06/03 10:11:47;;;;;;;7.67;4.97;;;38.10;27.80;;;;;;4954352;29;20780;-56
2021/06/03 10:14:16;;;;;;;11.23;5.40;;;38.00;27.80;;;;;;4954955;29;20837;-57
2021/06/03 10:16:43;;;;;;;14.07;6.07;;;37.70;28.10;;;;;;4955120;29;20569;-54
2021/06/03 10:19:17;;;;;;;12.10;4.70;;;37.60;28.30;;;;;;4955161;29;20448;-52
2021/06/03 10:21:43;;;;;;;7.90;5.80;;;37.40;28.50;;;;;;4954432;29;20448;-56
2021/06/03 10:24:09;;;;;;;6.50;4.37;;;37.10;29.20;;;;;;4954258;29;20451;-55
2021/06/03 10:26:58;;;;;;;5.33;4.43;;;37.10;28.50;;;;;;4954859;29;20448;-57
2021/06/03 10:29:24;;;;;;;7.27;4.47;;;36.90;28.30;;;;;;4954658;29;20443;-56
2021/06/03 10:31:50;;;;;;;5.60;5.00;;;36.40;28.50;;;;;;4953668;29;20448;-55
2021/06/03 10:34:17;;;;;;;8.70;4.20;;;35.90;29.40;;;;;;4954769;29;20625;-54
2021/06/03 10:36:45;;;;;;;6.90;5.10;;;35.60;30.00;;;;;;4954260;29;20444;-56
2021/06/03 10:39:11;;;;;;;6.97;5.20;;;35.40;29.70;;;;;;4958253;29;20447;-54
2021/06/03 10:41:38;;;;;;;5.40;4.90;;;35.10;30.40;;;;;;4957491;29;20463;-56
2021/06/03 10:44:07;;;;;;;4.50;4.10;;;34.80;30.90;;;;;;4958363;29;20459;-57
2021/06/03 10:46:35;;;;;;;6.13;4.77;;;34.30;31.60;;;;;;4958021;29;20444;-56
2021/06/03 10:49:01;;;;;;;6.13;5.00;;;34.00;31.60;;;;;;4957764;29;20447;-55
2021/06/03 10:51:28;;;;;;;6.10;4.90;;;33.60;31.90;;;;;;4957311;29;20464;-55
2021/06/03 10:53:54;;;;;;;7.57;4.80;;;33.40;32.70;;;;;;4958202;29;20447;-54
2021/06/03 10:56:24;;;;;;;7.30;4.93;;;33.20;33.70;;;;;;4957943;29;20937;-56
2021/06/03 10:58:50;;;;;;;5.03;4.47;;;33.10;33.30;;;;;;4957977;29;20479;-43
2021/06/03 11:01:19;;;;;;;7.57;4.40;;;33.00;33.90;;;;;;4956605;29;20447;-42
2021/06/03 11:03:49;;;;;;;7.27;4.90;;;32.90;34.00;;;;;;4957952;29;20456;-43
2021/06/03 11:06:16;;;;;;;5.57;4.73;;;32.70;34.60;;;;;;4957537;29;20463;-42
2021/06/03 11:08:46;;;;;;;4.10;3.70;;;32.60;34.90;;;;;;4957945;29;20447;-45
2021/06/03 11:11:30;;;;;;;4.90;4.50;;;32.50;35.00;;;;;;4957013;29;20440;-42
2021/06/03 11:14:06;;;;;;;6.30;4.33;;;32.30;35.00;;;;;;4954760;29;20475;-44
2021/06/03 11:16:53;;;;;;;5.90;4.50;;;32.20;33.90;;;;;;4957728;29;20593;-46
2021/06/03 11:19:21;;;;;;;10.27;4.90;;;32.10;35.70;;;;;;4955763;29;20467;-44
2021/06/03 11:21:58;;;;;;;6.03;4.90;;;32.00;35.40;;;;;;4956315;29;20454;-43
2021/06/03 11:24:52;;;;;;;5.00;4.47;;;31.90;35.60;;;;;;4957473;29;20443;-42
2021/06/03 11:27:20;;;;;;;5.27;4.77;;;31.80;33.80;;;;;;4926742;29;20451;-42
2021/06/03 11:30:01;;;;;;;5.13;4.00;;;31.80;34.30;;;;;;4957214;29;20440;-42
2021/06/03 11:32:35;;;;;;;5.20;4.70;;;31.80;33.80;;;;;;4954338;29;20950;-42
2021/06/03 11:35:09;;;;;;;6.40;4.37;;;31.60;33.80;;;;;;4957932;29;20537;-42
2021/06/03 11:37:48;;;;;;;5.50;4.80;;;31.50;34.50;;;;;;4957932;29;20444;-43
2021/06/03 11:40:20;;;;;;;5.43;4.93;;;31.40;35.60;;;;;;4955878;29;20760;-45
2021/06/03 11:42:48;;;;;;;9.23;5.50;;;31.30;36.20;;;;;;4957149;29;20459;-42
2021/06/03 11:45:27;;;;;;;9.43;6.00;;;31.30;36.20;;;;;;4957221;29;20440;-43
2021/06/03 11:48:16;;;;;;;5.57;5.00;;;31.30;36.30;;;;;;4957352;29;20436;-42
2021/06/03 11:51:06;;;;;;;5.30;4.17;;;31.30;36.30;;;;;;4952748;29;20448;-43
2021/06/03 11:53:46;;;;;;;5.10;4.30;;;31.20;35.60;;;;;;4953226;29;20835;-43
2021/06/03 11:56:16;;;;;;;10.77;6.90;;;31.20;36.40;;;;;;4957071;29;20498;-43
2021/06/03 11:58:49;;;;;;;5.77;4.63;;;31.00;37.00;;;;;;4956973;29;20547;-41
2021/06/03 12:01:30;;;;;;;4.50;4.10;;;30.90;35.80;;;;;;4968204;28;20439;-43
2021/06/03 12:04:18;;;;;;;5.90;3.73;;;30.80;34.70;;;;;;4952999;29;20459;-43
2021/06/03 12:06:46;;;;;;;4.77;4.37;;;30.70;34.40;;;;;;4956148;29;20510;-41
2021/06/03 12:09:18;;;;;;;4.97;3.70;;;30.50;34.90;;;;;;4956939;29;20459;-43
2021/06/03 12:11:46;;;;;;;6.03;4.77;;;30.40;35.30;;;;;;4956175;29;20849;-43
2021/06/03 12:14:16;;;;;;;5.80;4.00;;;30.30;36.80;;;;;;4956911;29;20768;-43
2021/06/03 12:16:44;;;;;;;4.63;4.23;;;30.20;35.90;;;;;;4957030;28;20452;-50
2021/06/03 12:19:13;;;;;;;4.67;4.30;;;30.10;36.10;;;;;;4957132;29;20455;-44
2021/06/03 12:21:40;;;;;;;4.90;4.23;;;30.10;36.70;;;;;;4955588;29;20515;-43
2021/06/03 12:24:08;;;;;;;6.80;4.47;;;30.10;36.50;;;;;;4956415;29;20470;-43
2021/06/03 12:26:37;;;;;;;5.43;4.03;;;29.80;35.30;;;;;;4956375;29;20467;-42
2021/06/03 12:29:04;;;;;;;6.50;4.17;;;29.60;35.10;;;;;;4956399;28;20930;-41
2021/06/03 12:31:30;;;;;;;4.23;3.90;;;29.60;35.60;;;;;;4955596;28;20802;-44
2021/06/03 12:33:57;;;;;;;4.80;4.30;;;29.70;35.90;;;;;;4956272;29;20440;-43
2021/06/03 12:36:26;;;;;;;4.27;3.50;;;29.60;36.20;;;;;;4955895;29;20444;-42
2021/06/03 12:38:56;;;;;;;5.33;4.90;;;29.60;36.50;;;;;;4955804;29;20732;-43
2021/06/03 12:41:26;;;;;;;4.73;4.33;;;29.80;37.70;;;;;;4953928;29;20865;-43
2021/06/03 12:43:55;;;;;;;8.60;5.20;;;29.80;35.90;;;;;;4955376;29;20432;-41
2021/06/03 12:46:31;;;;;;;4.17;3.80;;;29.70;38.30;;;;;;4955556;29;20448;-42
2021/06/03 12:49:02;;;;;;;6.10;4.43;;;29.70;36.40;;;;;;4954522;29;20518;-40
2021/06/03 12:51:29;;;;;;;6.40;4.50;;;29.80;36.70;;;;;;4953252;29;20476;-43
2021/06/03 12:53:55;;;;;;;6.77;5.37;;;29.60;36.20;;;;;;4955401;29;20443;-40